Shinkomaru No.8 — JK5142 — position and weather

sailwx.info

Track history (hours):
 
Tides and Currents Weather Stations Pressure Air Temp Water Temp Dewpoint Dewpoint Depression Visibility Wind Speed Wind Dir Waves Ship Positions

Shinkomaru No.8

Last reported at 2017-Oct-10 07:35 UTC. Time now 2017-Oct-17 01:08 UTC.
Position N 34°13' E 134°59'.

Length 61 m; draft 4.4 m.

Type: Tanker. MMSI: 431400035.

Date/timePositionNaut miles runAvg speedWind from/ knotsBaromVisibWave heightAir tempDewpointWater temp
2017-Oct-10 07:35N 34°13' E 134°59'112.4
2017-Oct-10 07:29N 34°13' E 135°00'511.5
2017-Oct-10 07:00N 34°14' E 135°07'0 0.7
2017-Oct-10 06:20N 34°14' E 135°07'0 0.0
2017-Oct-10 05:56N 34°14' E 135°07'0 0.0
2017-Oct-10 05:26N 34°14' E 135°07'0 0.0
2017-Oct-10 04:56N 34°14' E 135°07'0 0.0
2017-Oct-10 04:26N 34°14' E 135°07'0 0.0
2017-Oct-10 03:56N 34°14' E 135°07'0 0.0
2017-Oct-10 03:26N 34°14' E 135°07'0 0.0
2017-Oct-10 02:56N 34°14' E 135°07'0 0.0
2017-Oct-10 02:26N 34°14' E 135°07'0 0.0
2017-Oct-10 01:56N 34°14' E 135°07'0 0.0
2017-Oct-10 01:26N 34°14' E 135°07'0 0.0
2017-Oct-10 00:56N 34°14' E 135°07'0 0.0
2017-Oct-10 00:26N 34°14' E 135°07'0 0.0
2017-Oct-09 23:56N 34°14' E 135°07'0 0.0
2017-Oct-09 23:26N 34°14' E 135°07'0 0.0
2017-Oct-09 22:56N 34°14' E 135°07'0 0.4
2017-Oct-09 22:31N 34°14' E 135°07'1 2.1
2017-Oct-09 21:58N 34°15' E 135°06'0 0.0
2017-Oct-09 21:28N 34°15' E 135°06'0 0.0
2017-Oct-09 20:58N 34°15' E 135°06'0 0.0
2017-Oct-09 20:28N 34°15' E 135°06'0 0.0
2017-Oct-09 20:01N 34°15' E 135°06'0 0.0
2017-Oct-09 19:30N 34°15' E 135°06'0 0.0
2017-Oct-09 19:00N 34°15' E 135°06'0 0.0
2017-Oct-09 18:30N 34°15' E 135°06'0 0.0
2017-Oct-09 18:00N 34°15' E 135°06'0 0.0
2017-Oct-09 17:30N 34°15' E 135°06'0 0.0
2017-Oct-09 17:00N 34°15' E 135°06'0 0.1
2017-Oct-09 16:31N 34°15' E 135°06'  
2017-Oct-06 02:37N 34°38' E 134°59'411.2
2017-Oct-06 02:17N 34°36' E 135°03'311.9
2017-Oct-06 02:00N 34°36' E 135°07'612.6
2017-Oct-06 01:30N 34°37' E 135°15'3 6.8
2017-Oct-06 01:00N 34°40' E 135°18'0 0.1
2017-Oct-06 00:12N 34°40' E 135°18'0 0.0
2017-Oct-05 23:54N 34°40' E 135°18'0 0.0
2017-Oct-05 23:24N 34°40' E 135°18'0 0.0
2017-Oct-05 22:42N 34°40' E 135°18'0 0.0
2017-Oct-05 22:18N 34°40' E 135°18'0 0.0
2017-Oct-05 21:54N 34°40' E 135°18'1 3.3
2017-Oct-05 21:30N 34°39' E 135°19'0 0.3
2017-Oct-05 20:55N 34°39' E 135°19'0 0.1
2017-Oct-05 20:25N 34°39' E 135°19'0 0.0
2017-Oct-05 19:43N 34°39' E 135°19'0 0.0
2017-Oct-05 19:25N 34°39' E 135°19'0 0.0
2017-Oct-05 18:55N 34°39' E 135°19'0 0.0
2017-Oct-05 18:25N 34°39' E 135°19'0 0.0
2017-Oct-05 17:55N 34°39' E 135°19'0 0.1
2017-Oct-05 17:25N 34°39' E 135°19'0 0.0
2017-Oct-05 16:55N 34°39' E 135°19'0 0.0
2017-Oct-05 15:01N 34°39' E 135°19'0 0.0
2017-Oct-05 14:55N 34°39' E 135°19'0 0.0
2017-Oct-05 14:19N 34°39' E 135°19'0 0.0
2017-Oct-05 13:55N 34°39' E 135°19'0 0.0
2017-Oct-05 13:25N 34°39' E 135°19'0 0.0
2017-Oct-05 12:55N 34°39' E 135°19'0 0.0
2017-Oct-05 12:25N 34°39' E 135°19'0 0.0
2017-Oct-05 11:55N 34°39' E 135°19'0 0.0
2017-Oct-05 11:25N 34°39' E 135°19'0 0.0
2017-Oct-05 10:49N 34°39' E 135°19'0 0.0
2017-Oct-05 10:25N 34°39' E 135°19'0 0.0
2017-Oct-05 09:55N 34°39' E 135°19'0 0.1
2017-Oct-05 09:25N 34°39' E 135°19'1 2.0
2017-Oct-05 09:00N 34°38' E 135°19'611.8
2017-Oct-05 08:30N 34°35' E 135°13'713.2
2017-Oct-05 08:00N 34°35' E 135°05'811.6
2017-Oct-05 07:20N 34°37' E 134°55'8 0.4
2017-Oct-04 08:55N 34°40' E 134°47'1412.8
2017-Oct-04 07:48N 34°36' E 135°03'311.0
2017-Oct-04 07:30N 34°36' E 135°07'611.7
2017-Oct-04 07:00N 34°37' E 135°14'4 7.0
2017-Oct-04 06:25N 34°38' E 135°19'0 0.1
2017-Oct-04 05:55N 34°38' E 135°19'0 0.8
2017-Oct-04 05:30N 34°38' E 135°19'0 0.9
2017-Oct-04 05:00N 34°39' E 135°19'1 2.3
2017-Oct-04 04:30N 34°39' E 135°18'0 0.5
2017-Oct-04 04:00N 34°40' E 135°18'0 0.1
2017-Oct-04 03:30N 34°40' E 135°18'0 0.1
2017-Oct-04 02:54N 34°40' E 135°18'0 0.0
2017-Oct-04 02:30N 34°40' E 135°18'0 0.1
2017-Oct-04 02:00N 34°40' E 135°18'0 0.0
2017-Oct-04 01:30N 34°40' E 135°18'0 0.0
2017-Oct-04 01:00N 34°40' E 135°18'0 0.0
2017-Oct-04 00:30N 34°40' E 135°18'0 0.0
2017-Oct-04 00:00N 34°40' E 135°18'0 0.7
2017-Oct-03 23:30N 34°39' E 135°18'1 1.7
2017-Oct-03 22:54N 34°39' E 135°19'0 0.0
2017-Oct-03 22:30N 34°39' E 135°19'0 0.0
2017-Oct-03 22:00N 34°39' E 135°19'0 0.0
2017-Oct-03 21:24N 34°39' E 135°19'0 0.0
2017-Oct-03 21:00N 34°39' E 135°19'1 1.2
2017-Oct-03 20:30N 34°38' E 135°19'510.7
2017-Oct-03 20:00N 34°35' E 135°13'612.2
2017-Oct-03 19:30N 34°35' E 135°06'  
Track history (hours):
 
Tides and Currents Weather Stations Pressure Air Temp Water Temp Dewpoint Dewpoint Depression Visibility Wind Speed Wind Dir Waves Ship Positions

Shinkomaru No.8

Last reported at 2017-Oct-10 07:35 UTC. Time now 2017-Oct-17 01:08 UTC.
Position N 34°13' E 134°59'.

Length 61 m; draft 4.4 m.

Type: Tanker. MMSI: 431400035.

Date/timePositionNaut miles runAvg speedWind from/ knotsBaromVisibWave heightAir tempDewpointWater temp
2017-Oct-10 07:35N 34°13' E 134°59'112.4
2017-Oct-10 07:29N 34°13' E 135°00'511.5
2017-Oct-10 07:00N 34°14' E 135°07'0 0.7
2017-Oct-10 06:20N 34°14' E 135°07'0 0.0
2017-Oct-10 05:56N 34°14' E 135°07'0 0.0
2017-Oct-10 05:26N 34°14' E 135°07'0 0.0
2017-Oct-10 04:56N 34°14' E 135°07'0 0.0
2017-Oct-10 04:26N 34°14' E 135°07'0 0.0
2017-Oct-10 03:56N 34°14' E 135°07'0 0.0
2017-Oct-10 03:26N 34°14' E 135°07'0 0.0
2017-Oct-10 02:56N 34°14' E 135°07'0 0.0
2017-Oct-10 02:26N 34°14' E 135°07'0 0.0
2017-Oct-10 01:56N 34°14' E 135°07'0 0.0
2017-Oct-10 01:26N 34°14' E 135°07'0 0.0
2017-Oct-10 00:56N 34°14' E 135°07'0 0.0
2017-Oct-10 00:26N 34°14' E 135°07'0 0.0
2017-Oct-09 23:56N 34°14' E 135°07'0 0.0
2017-Oct-09 23:26N 34°14' E 135°07'0 0.0
2017-Oct-09 22:56N 34°14' E 135°07'0 0.4
2017-Oct-09 22:31N 34°14' E 135°07'1 2.1
2017-Oct-09 21:58N 34°15' E 135°06'0 0.0
2017-Oct-09 21:28N 34°15' E 135°06'0 0.0
2017-Oct-09 20:58N 34°15' E 135°06'0 0.0
2017-Oct-09 20:28N 34°15' E 135°06'0 0.0
2017-Oct-09 20:01N 34°15' E 135°06'0 0.0
2017-Oct-09 19:30N 34°15' E 135°06'0 0.0
2017-Oct-09 19:00N 34°15' E 135°06'0 0.0
2017-Oct-09 18:30N 34°15' E 135°06'0 0.0
2017-Oct-09 18:00N 34°15' E 135°06'0 0.0
2017-Oct-09 17:30N 34°15' E 135°06'0 0.0
2017-Oct-09 17:00N 34°15' E 135°06'0 0.1
2017-Oct-09 16:31N 34°15' E 135°06'  
2017-Oct-06 02:37N 34°38' E 134°59'411.2
2017-Oct-06 02:17N 34°36' E 135°03'311.9
2017-Oct-06 02:00N 34°36' E 135°07'612.6
2017-Oct-06 01:30N 34°37' E 135°15'3 6.8
2017-Oct-06 01:00N 34°40' E 135°18'0 0.1
2017-Oct-06 00:12N 34°40' E 135°18'0 0.0
2017-Oct-05 23:54N 34°40' E 135°18'0 0.0
2017-Oct-05 23:24N 34°40' E 135°18'0 0.0
2017-Oct-05 22:42N 34°40' E 135°18'0 0.0
2017-Oct-05 22:18N 34°40' E 135°18'0 0.0
2017-Oct-05 21:54N 34°40' E 135°18'1 3.3
2017-Oct-05 21:30N 34°39' E 135°19'0 0.3
2017-Oct-05 20:55N 34°39' E 135°19'0 0.1
2017-Oct-05 20:25N 34°39' E 135°19'0 0.0
2017-Oct-05 19:43N 34°39' E 135°19'0 0.0
2017-Oct-05 19:25N 34°39' E 135°19'0 0.0
2017-Oct-05 18:55N 34°39' E 135°19'0 0.0
2017-Oct-05 18:25N 34°39' E 135°19'0 0.0
2017-Oct-05 17:55N 34°39' E 135°19'0 0.1
2017-Oct-05 17:25N 34°39' E 135°19'0 0.0
2017-Oct-05 16:55N 34°39' E 135°19'0 0.0
2017-Oct-05 15:01N 34°39' E 135°19'0 0.0
2017-Oct-05 14:55N 34°39' E 135°19'0 0.0
2017-Oct-05 14:19N 34°39' E 135°19'0 0.0
2017-Oct-05 13:55N 34°39' E 135°19'0 0.0
2017-Oct-05 13:25N 34°39' E 135°19'0 0.0
2017-Oct-05 12:55N 34°39' E 135°19'0 0.0
2017-Oct-05 12:25N 34°39' E 135°19'0 0.0
2017-Oct-05 11:55N 34°39' E 135°19'0 0.0
2017-Oct-05 11:25N 34°39' E 135°19'0 0.0
2017-Oct-05 10:49N 34°39' E 135°19'0 0.0
2017-Oct-05 10:25N 34°39' E 135°19'0 0.0
2017-Oct-05 09:55N 34°39' E 135°19'0 0.1
2017-Oct-05 09:25N 34°39' E 135°19'1 2.0
2017-Oct-05 09:00N 34°38' E 135°19'611.8
2017-Oct-05 08:30N 34°35' E 135°13'713.2
2017-Oct-05 08:00N 34°35' E 135°05'811.6
2017-Oct-05 07:20N 34°37' E 134°55'8 0.4
2017-Oct-04 08:55N 34°40' E 134°47'1412.8
2017-Oct-04 07:48N 34°36' E 135°03'311.0
2017-Oct-04 07:30N 34°36' E 135°07'611.7
2017-Oct-04 07:00N 34°37' E 135°14'4 7.0
2017-Oct-04 06:25N 34°38' E 135°19'0 0.1
2017-Oct-04 05:55N 34°38' E 135°19'0 0.8
2017-Oct-04 05:30N 34°38' E 135°19'0 0.9
2017-Oct-04 05:00N 34°39' E 135°19'1 2.3
2017-Oct-04 04:30N 34°39' E 135°18'0 0.5
2017-Oct-04 04:00N 34°40' E 135°18'0 0.1
2017-Oct-04 03:30N 34°40' E 135°18'0 0.1
2017-Oct-04 02:54N 34°40' E 135°18'0 0.0
2017-Oct-04 02:30N 34°40' E 135°18'0 0.1
2017-Oct-04 02:00N 34°40' E 135°18'0 0.0
2017-Oct-04 01:30N 34°40' E 135°18'0 0.0
2017-Oct-04 01:00N 34°40' E 135°18'0 0.0
2017-Oct-04 00:30N 34°40' E 135°18'0 0.0
2017-Oct-04 00:00N 34°40' E 135°18'0 0.7
2017-Oct-03 23:30N 34°39' E 135°18'1 1.7
2017-Oct-03 22:54N 34°39' E 135°19'0 0.0
2017-Oct-03 22:30N 34°39' E 135°19'0 0.0
2017-Oct-03 22:00N 34°39' E 135°19'0 0.0
2017-Oct-03 21:24N 34°39' E 135°19'0 0.0
2017-Oct-03 21:00N 34°39' E 135°19'1 1.2
2017-Oct-03 20:30N 34°38' E 135°19'510.7
2017-Oct-03 20:00N 34°35' E 135°13'612.2
2017-Oct-03 19:30N 34°35' E 135°06'  

Dump ship's entire track history